Time;durP1;ratioP1;P1;durP2;ratioP2;P2;SDS_P1;SDS_P2;PMS_P1;PMS_P2;Temp;Humidity;BMP_temperature;BMP_pressure;BME280_temperature;BME280_humidity;BME280_pressure;Samples;Min_cycle;Max_cycle;Signal;HPM_P1;HPM_P2
2022/04/09 00:00:33;;;;;;;3.25;1.40;;;18.50;92.60;;;;;;4249100;27;20262;-73
2022/04/09 00:02:36;;;;;;;4.15;1.50;;;18.50;92.60;;;;;;4233597;27;20213;-73
2022/04/09 00:04:38;;;;;;;4.75;1.52;;;18.50;92.60;;;;;;4249465;27;20209;-73
2022/04/09 00:06:40;;;;;;;3.50;1.63;;;18.50;92.60;;;;;;4249300;27;20265;-73
2022/04/09 00:08:43;;;;;;;2.50;1.52;;;18.50;92.60;;;;;;4249270;27;20328;-73
2022/04/09 00:10:47;;;;;;;2.97;1.67;;;18.50;92.60;;;;;;4248836;27;20266;-73
2022/04/09 00:12:49;;;;;;;2.08;1.40;;;18.50;92.60;;;;;;4234815;27;20218;-73
2022/04/09 00:14:52;;;;;;;4.60;1.80;;;18.40;92.50;;;;;;4237574;27;20241;-73
2022/04/09 00:16:54;;;;;;;4.30;1.83;;;18.50;92.60;;;;;;4236321;27;20217;-73
2022/04/09 00:18:56;;;;;;;3.30;1.42;;;18.50;92.60;;;;;;4248805;27;20213;-73
2022/04/09 00:20:59;;;;;;;3.88;1.70;;;18.40;92.50;;;;;;4249380;27;20201;-73
2022/04/09 00:23:01;;;;;;;3.60;1.50;;;18.40;92.50;;;;;;4249038;27;20612;-73
2022/04/09 00:25:05;;;;;;;3.90;1.60;;;18.40;92.50;;;;;;4248859;27;20205;-73
2022/04/09 00:27:08;;;;;;;3.17;1.50;;;18.40;92.50;;;;;;4249042;27;20282;-73
2022/04/09 00:29:11;;;;;;;3.80;1.80;;;18.40;92.50;;;;;;4242181;27;20213;-73
2022/04/09 00:31:13;;;;;;;3.97;1.60;;;18.40;92.50;;;;;;4248887;27;20209;-73
2022/04/09 00:33:15;;;;;;;3.72;1.60;;;18.40;92.50;;;;;;4245248;27;20698;-73
2022/04/09 00:35:17;;;;;;;5.97;1.88;;;18.40;92.50;;;;;;4248582;27;20294;-73
2022/04/09 00:37:20;;;;;;;2.88;1.45;;;18.40;92.50;;;;;;4248934;27;20247;-73
2022/04/09 00:39:24;;;;;;;4.70;1.77;;;18.40;92.50;;;;;;4248914;27;20258;-73
2022/04/09 00:41:26;;;;;;;3.38;1.75;;;18.40;92.50;;;;;;4249077;27;20209;-73
2022/04/09 00:43:30;;;;;;;3.50;1.70;;;18.40;92.50;;;;;;4248449;27;20599;-73
2022/04/09 00:45:32;;;;;;;4.15;1.65;;;18.40;92.50;;;;;;4243289;27;20251;-73
2022/04/09 00:47:35;;;;;;;3.08;1.52;;;18.40;92.40;;;;;;4248374;27;20205;-73
2022/04/09 00:49:39;;;;;;;4.00;1.98;;;18.40;92.40;;;;;;4248219;27;20665;-73
2022/04/09 00:51:43;;;;;;;4.43;1.77;;;18.40;92.40;;;;;;4248368;27;20205;-73
2022/04/09 00:53:52;;;;;;;3.45;1.60;;;18.40;92.50;;;;;;4248556;27;20262;-73
2022/04/09 00:58:16;;;;;;;3.35;1.70;;;18.30;92.40;;;;;;4249053;27;20205;-73
2022/04/09 01:00:20;;;;;;;3.65;1.77;;;18.40;92.50;;;;;;4248147;27;20282;-73
2022/04/09 01:02:23;;;;;;;3.55;1.65;;;18.30;92.40;;;;;;4242640;27;20263;-73
2022/04/09 01:04:25;;;;;;;2.85;1.80;;;18.40;92.40;;;;;;4247677;27;20225;-73
2022/04/09 01:06:27;;;;;;;4.57;1.95;;;18.30;92.40;;;;;;4248193;27;20217;-73
2022/04/09 01:08:30;;;;;;;4.78;1.70;;;18.30;92.40;;;;;;4248099;27;20243;-73
2022/04/09 01:10:32;;;;;;;3.58;1.60;;;18.30;92.40;;;;;;4248502;27;20209;-73
2022/04/09 01:12:35;;;;;;;4.03;1.63;;;18.30;92.50;;;;;;4248476;27;20285;-73
2022/04/09 01:14:38;;;;;;;2.28;1.42;;;18.30;92.40;;;;;;4237766;27;20263;-73
2022/04/09 01:16:41;;;;;;;4.55;1.77;;;18.30;92.40;;;;;;4246106;27;20228;-73
2022/04/09 01:18:44;;;;;;;4.25;1.70;;;18.30;92.40;;;;;;4234919;27;20205;-73
2022/04/09 01:20:46;;;;;;;3.20;1.42;;;18.30;92.30;;;;;;4232906;27;20239;-73
2022/04/09 01:22:50;;;;;;;4.95;2.10;;;18.30;92.30;;;;;;4248148;27;20216;-73
2022/04/09 01:24:53;;;;;;;6.65;2.05;;;18.30;92.30;;;;;;4248056;27;20252;-73
2022/04/09 01:26:55;;;;;;;2.13;1.42;;;18.30;92.40;;;;;;4247977;27;20235;-73
2022/04/09 01:28:59;;;;;;;3.30;1.80;;;18.30;92.30;;;;;;4248169;27;20611;-73
2022/04/09 01:31:01;;;;;;;3.92;1.52;;;18.30;92.30;;;;;;4248163;27;20210;-73
2022/04/09 01:33:03;;;;;;;3.53;1.70;;;18.30;92.30;;;;;;4247349;27;20205;-73
2022/04/09 01:35:06;;;;;;;2.85;1.30;;;18.30;92.30;;;;;;4247575;27;20259;-73
2022/04/09 01:37:09;;;;;;;3.05;1.60;;;18.30;92.30;;;;;;4240770;27;20609;-73
2022/04/09 01:39:17;;;;;;;3.45;1.88;;;18.30;92.30;;;;;;4248044;27;20213;-73
2022/04/09 01:41:19;;;;;;;3.15;1.55;;;18.30;92.20;;;;;;4247715;27;20958;-73
2022/04/09 01:43:22;;;;;;;4.32;1.77;;;18.30;92.30;;;;;;4248112;27;20605;-73
2022/04/09 01:45:24;;;;;;;2.85;1.80;;;18.30;92.30;;;;;;4247787;27;20205;-73
2022/04/09 01:47:26;;;;;;;4.45;1.58;;;18.20;92.20;;;;;;4247810;27;20587;-73
2022/04/09 01:49:29;;;;;;;4.72;1.90;;;18.30;92.60;;;;;;4247755;27;20201;-73
2022/04/09 01:51:31;;;;;;;5.80;2.03;;;18.20;92.20;;;;;;4247369;27;20209;-73
2022/04/09 01:53:34;;;;;;;3.42;1.67;;;18.30;92.20;;;;;;4240700;27;20213;-73
2022/04/09 01:55:38;;;;;;;4.53;1.75;;;18.30;92.20;;;;;;4239278;27;20278;-73
2022/04/09 01:57:41;;;;;;;5.13;1.90;;;18.20;92.20;;;;;;4247638;27;20209;-74
2022/04/09 01:59:44;;;;;;;4.28;2.03;;;18.20;92.20;;;;;;4247535;27;20262;-73
2022/04/09 02:01:47;;;;;;;6.15;1.77;;;18.20;92.30;;;;;;4247232;27;20281;-74
2022/04/09 02:03:50;;;;;;;6.00;1.73;;;18.20;92.20;;;;;;4247521;27;20201;-73
2022/04/09 02:05:52;;;;;;;3.85;1.90;;;18.20;92.10;;;;;;4247477;27;20661;-73
2022/04/09 02:07:54;;;;;;;5.22;1.80;;;18.20;92.20;;;;;;4247612;27;20273;-73
2022/04/09 02:09:57;;;;;;;3.80;1.80;;;18.20;92.10;;;;;;4245019;27;20262;-73
2022/04/09 02:12:00;;;;;;;3.55;1.85;;;18.20;92.10;;;;;;4240679;27;20657;-73
2022/04/09 02:14:03;;;;;;;4.18;2.00;;;18.20;92.10;;;;;;4240048;27;20222;-73
2022/04/09 02:16:05;;;;;;;3.17;1.55;;;18.20;92.20;;;;;;4243577;27;20285;-73
2022/04/09 02:18:07;;;;;;;5.68;1.73;;;18.20;92.10;;;;;;4247250;27;20205;-73
2022/04/09 02:20:12;;;;;;;4.00;2.00;;;18.20;92.10;;;;;;4247535;27;20329;-73
2022/04/09 02:22:14;;;;;;;4.03;1.63;;;18.20;92.10;;;;;;4247243;27;20669;-73
2022/04/09 02:24:16;;;;;;;4.72;2.08;;;18.10;92.00;;;;;;4247048;27;20262;-73
2022/04/09 02:26:18;;;;;;;3.40;1.65;;;18.20;92.10;;;;;;4247360;27;20208;-73
2022/04/09 02:28:22;;;;;;;4.40;1.70;;;18.10;92.10;;;;;;4232680;27;20226;-73
2022/04/09 02:30:24;;;;;;;4.18;1.77;;;18.10;92.10;;;;;;4246446;27;20228;-73
2022/04/09 02:32:27;;;;;;;4.93;1.75;;;18.20;92.10;;;;;;4246951;27;20271;-73
2022/04/09 02:34:29;;;;;;;5.70;1.75;;;18.10;92.00;;;;;;4246792;27;20229;-73
2022/04/09 02:36:32;;;;;;;4.88;2.03;;;18.10;92.10;;;;;;4246545;27;20229;-73
2022/04/09 02:38:35;;;;;;;3.33;1.85;;;18.10;92.10;;;;;;4246574;27;20620;-73
2022/04/09 02:40:37;;;;;;;3.88;1.75;;;18.10;92.00;;;;;;4246958;27;20221;-73
2022/04/09 02:42:40;;;;;;;4.00;1.70;;;18.10;92.00;;;;;;4246667;27;20209;-73
2022/04/09 02:44:45;;;;;;;2.92;1.77;;;18.10;92.40;;;;;;4240307;27;20217;-73
2022/04/09 02:46:48;;;;;;;4.57;2.10;;;18.10;92.00;;;;;;4247138;27;20242;-73
2022/04/09 02:48:50;;;;;;;4.45;2.00;;;18.10;92.00;;;;;;4247137;27;20213;-73
2022/04/09 02:50:53;;;;;;;4.30;1.95;;;18.10;92.00;;;;;;4246771;27;20490;-73
2022/04/09 02:52:56;;;;;;;3.63;1.88;;;18.10;92.00;;;;;;4246509;27;20265;-73
2022/04/09 02:54:58;;;;;;;4.10;1.80;;;18.10;92.10;;;;;;4246680;27;20608;-73
2022/04/09 02:57:01;;;;;;;4.45;1.98;;;18.10;92.00;;;;;;4246386;27;20254;-73
2022/04/09 02:59:03;;;;;;;6.13;2.10;;;18.10;92.00;;;;;;4246751;27;20205;-73
2022/04/09 03:01:07;;;;;;;3.75;1.70;;;18.10;92.00;;;;;;4243492;27;20262;-73
2022/04/09 03:03:09;;;;;;;3.15;1.73;;;18.10;92.00;;;;;;4235030;27;20209;-73
2022/04/09 03:05:13;;;;;;;3.85;1.73;;;18.10;92.00;;;;;;4242682;27;20574;-73
2022/04/09 03:07:15;;;;;;;4.32;1.85;;;18.00;92.40;;;;;;4235514;27;20205;-73
2022/04/09 03:09:18;;;;;;;4.30;1.98;;;18.00;92.00;;;;;;4246604;27;20258;-73
2022/04/09 03:11:20;;;;;;;3.80;2.00;;;18.00;92.30;;;;;;4241613;27;20214;-73
2022/04/09 03:13:22;;;;;;;4.03;1.92;;;18.10;92.00;;;;;;4237108;28;20205;-73
2022/04/09 03:15:26;;;;;;;4.75;1.95;;;18.10;92.00;;;;;;4239672;28;20205;-73
2022/04/09 03:17:30;;;;;;;4.38;2.10;;;18.00;92.00;;;;;;4246406;28;20700;-74
2022/04/09 03:19:32;;;;;;;5.63;2.10;;;18.10;92.00;;;;;;4239547;28;20213;-73
2022/04/09 03:21:34;;;;;;;4.38;1.92;;;18.00;91.90;;;;;;4246178;28;20261;-73
2022/04/09 03:23:36;;;;;;;5.75;2.03;;;18.00;91.90;;;;;;4246501;28;20273;-73
2022/04/09 03:25:39;;;;;;;4.18;1.80;;;18.00;91.90;;;;;;4246284;28;20266;-73
2022/04/09 03:27:41;;;;;;;4.53;1.77;;;18.00;91.90;;;;;;4246351;28;20201;-73
2022/04/09 03:29:43;;;;;;;5.25;2.00;;;18.00;91.90;;;;;;4246403;28;20209;-73
2022/04/09 03:31:46;;;;;;;3.63;1.50;;;18.00;91.90;;;;;;4245957;28;20205;-73
2022/04/09 03:33:52;;;;;;;4.07;1.73;;;18.00;91.90;;;;;;4245763;28;20233;-73
2022/04/09 03:35:54;;;;;;;4.22;1.70;;;18.00;91.90;;;;;;4236431;28;20243;-73
2022/04/09 03:37:57;;;;;;;2.97;1.50;;;18.00;91.90;;;;;;4241370;28;20753;-73
2022/04/09 03:39:59;;;;;;;4.90;1.85;;;18.00;91.90;;;;;;4246587;28;20583;-74
2022/04/09 03:42:01;;;;;;;3.97;2.10;;;18.00;91.90;;;;;;4246387;28;20242;-73
2022/04/09 03:44:04;;;;;;;3.97;1.83;;;18.00;91.90;;;;;;4246357;28;20209;-73
2022/04/09 03:46:06;;;;;;;4.15;2.20;;;18.00;91.90;;;;;;4246108;28;20262;-73
2022/04/09 03:48:08;;;;;;;3.72;2.00;;;18.00;91.90;;;;;;4245937;28;20213;-73
2022/04/09 03:50:13;;;;;;;4.13;1.95;;;18.00;91.90;;;;;;4246078;28;20329;-73
2022/04/09 03:52:15;;;;;;;6.13;2.17;;;17.90;91.80;;;;;;4241938;28;20254;-73
2022/04/09 03:54:17;;;;;;;4.00;1.85;;;17.90;91.80;;;;;;4244268;28;20205;-73
2022/04/09 03:56:20;;;;;;;4.25;1.83;;;17.90;91.80;;;;;;4245632;28;20254;-73
2022/04/09 03:58:23;;;;;;;4.15;1.80;;;18.00;91.80;;;;;;4245934;28;20689;-73
2022/04/09 04:00:26;;;;;;;6.32;2.33;;;17.90;91.80;;;;;;4246256;28;20213;-73
2022/04/09 04:02:28;;;;;;;3.85;2.30;;;18.00;91.80;;;;;;4245922;28;20217;-73
2022/04/09 04:04:30;;;;;;;5.45;2.22;;;17.90;91.80;;;;;;4236699;28;20695;-73
2022/04/09 04:06:34;;;;;;;3.75;2.08;;;17.90;91.80;;;;;;4229703;28;20214;-73
2022/04/09 04:08:36;;;;;;;4.63;2.30;;;17.90;91.80;;;;;;4245854;28;20662;-73
2022/04/09 04:10:39;;;;;;;4.40;2.10;;;17.90;91.80;;;;;;4230604;28;20283;-73
2022/04/09 04:12:42;;;;;;;4.78;2.13;;;17.90;91.80;;;;;;4246087;28;20238;-73
2022/04/09 04:14:45;;;;;;;3.72;2.00;;;17.90;91.80;;;;;;4238881;28;20202;-73
2022/04/09 04:16:47;;;;;;;4.38;1.90;;;17.90;91.80;;;;;;4245781;28;20237;-73
2022/04/09 04:18:49;;;;;;;3.75;1.77;;;17.90;91.80;;;;;;4246960;27;20209;-73
2022/04/09 04:20:52;;;;;;;4.78;2.10;;;17.90;91.80;;;;;;4249400;27;20250;-73
2022/04/09 04:22:56;;;;;;;4.10;2.38;;;17.90;91.80;;;;;;4248661;27;20258;-73
2022/04/09 04:24:58;;;;;;;4.22;2.10;;;17.90;91.80;;;;;;4249259;27;20209;-73
2022/04/09 04:27:00;;;;;;;3.92;2.17;;;17.90;91.80;;;;;;4242227;27;20649;-73
2022/04/09 04:29:03;;;;;;;5.45;2.05;;;17.90;91.80;;;;;;4249047;27;20611;-73
2022/04/09 04:31:06;;;;;;;3.45;1.83;;;17.90;91.80;;;;;;4249170;27;20262;-73
2022/04/09 04:33:09;;;;;;;4.55;1.80;;;17.90;91.70;;;;;;4249125;27;20267;-73
2022/04/09 04:35:12;;;;;;;4.45;2.00;;;17.90;91.70;;;;;;4249026;27;20649;-73
2022/04/09 04:37:16;;;;;;;4.78;2.05;;;17.90;91.70;;;;;;4248744;27;20233;-73
2022/04/09 04:39:20;;;;;;;5.13;2.10;;;17.90;91.70;;;;;;4248770;27;20217;-73
2022/04/09 04:41:22;;;;;;;3.75;1.85;;;17.90;91.70;;;;;;4248569;27;20569;-73
2022/04/09 04:43:24;;;;;;;3.60;1.90;;;17.80;91.70;;;;;;4242832;27;20638;-73
2022/04/09 04:45:27;;;;;;;5.40;2.30;;;17.80;91.70;;;;;;4239663;27;20209;-73
2022/04/09 04:47:29;;;;;;;3.90;1.88;;;17.90;91.70;;;;;;4248926;27;20262;-73
2022/04/09 04:49:32;;;;;;;5.07;2.03;;;17.80;91.70;;;;;;4248569;27;20554;-73
2022/04/09 04:51:34;;;;;;;2.75;1.55;;;17.90;91.70;;;;;;4246937;27;20660;-73
2022/04/09 04:53:36;;;;;;;5.85;2.17;;;17.80;91.60;;;;;;4229058;27;20221;-73
2022/04/09 04:55:40;;;;;;;5.82;2.38;;;17.80;91.60;;;;;;4241337;27;20205;-73
2022/04/09 04:57:46;;;;;;;4.30;1.88;;;17.80;91.60;;;;;;4248583;27;20229;-73
2022/04/09 04:59:48;;;;;;;4.05;2.13;;;17.80;91.60;;;;;;4247629;27;20270;-73
2022/04/09 05:01:51;;;;;;;4.05;1.88;;;17.80;91.60;;;;;;4243143;27;20205;-73
2022/04/09 05:03:53;;;;;;;3.70;1.80;;;17.80;91.60;;;;;;4244416;27;20214;-73
2022/04/09 05:05:56;;;;;;;4.45;2.13;;;17.80;91.60;;;;;;4243160;27;20258;-73
2022/04/09 05:07:58;;;;;;;4.05;1.90;;;17.80;91.60;;;;;;4248574;27;20557;-73
2022/04/09 05:10:00;;;;;;;5.63;2.10;;;17.80;91.60;;;;;;4248488;27;20601;-73
2022/04/09 05:12:04;;;;;;;5.00;2.10;;;17.80;91.60;;;;;;4248338;27;20622;-73
2022/04/09 05:14:07;;;;;;;4.20;2.00;;;17.80;91.60;;;;;;4248080;27;20243;-73
2022/04/09 05:16:09;;;;;;;6.22;2.28;;;17.80;91.70;;;;;;4248096;27;20208;-73
2022/04/09 05:18:12;;;;;;;5.75;2.05;;;17.80;91.60;;;;;;4235264;27;20286;-73
2022/04/09 05:20:16;;;;;;;3.67;1.80;;;17.80;91.60;;;;;;4245793;27;20221;-73
2022/04/09 05:22:18;;;;;;;6.00;2.00;;;17.80;91.60;;;;;;4248228;27;20257;-73
2022/04/09 05:24:20;;;;;;;6.18;2.28;;;17.80;91.60;;;;;;4248193;27;20243;-73
2022/04/09 05:26:23;;;;;;;4.45;1.98;;;17.80;91.60;;;;;;4248506;27;20972;-73
2022/04/09 05:28:26;;;;;;;5.60;2.38;;;17.80;91.60;;;;;;4247913;27;20209;-73
2022/04/09 05:30:29;;;;;;;6.50;2.00;;;17.80;91.60;;;;;;4246570;27;20221;-73
2022/04/09 05:32:31;;;;;;;6.50;2.30;;;17.70;91.60;;;;;;4248129;27;20217;-73
2022/04/09 05:34:34;;;;;;;4.65;2.10;;;17.80;91.70;;;;;;4240433;27;20286;-73
2022/04/09 05:36:36;;;;;;;4.53;2.38;;;17.70;91.60;;;;;;4247985;27;20213;-73
2022/04/09 05:38:38;;;;;;;5.70;2.30;;;17.80;91.70;;;;;;4248254;27;20244;-73
2022/04/09 05:40:42;;;;;;;5.05;1.90;;;17.80;91.60;;;;;;4248345;27;20238;-73
2022/04/09 05:42:44;;;;;;;6.65;2.38;;;17.70;91.60;;;;;;4247886;27;20209;-73
2022/04/09 05:44:48;;;;;;;5.07;2.00;;;17.80;91.60;;;;;;4247594;27;20213;-73
2022/04/09 05:46:50;;;;;;;5.35;1.90;;;17.70;91.70;;;;;;4247798;27;20753;-73
2022/04/09 05:48:52;;;;;;;4.38;1.92;;;17.70;91.60;;;;;;4248147;27;20606;-73
2022/04/09 05:50:55;;;;;;;7.07;2.17;;;17.70;91.70;;;;;;4246656;27;20205;-73
2022/04/09 05:52:57;;;;;;;6.60;2.10;;;17.70;91.70;;;;;;4244171;27;20209;-73
2022/04/09 05:54:59;;;;;;;4.97;2.25;;;17.70;91.70;;;;;;4247976;27;20248;-73
2022/04/09 05:57:02;;;;;;;7.57;2.58;;;17.70;91.70;;;;;;4247489;27;20205;-73
2022/04/09 05:59:05;;;;;;;6.03;2.08;;;17.70;91.70;;;;;;4247173;27;20224;-73
2022/04/09 06:01:09;;;;;;;4.70;2.15;;;17.70;91.70;;;;;;4247358;27;20209;-73
2022/04/09 06:03:11;;;;;;;7.72;2.58;;;17.70;91.70;;;;;;4246304;27;20221;-73
2022/04/09 06:05:13;;;;;;;4.68;1.92;;;17.70;91.80;;;;;;4237946;27;20209;-73
2022/04/09 06:07:17;;;;;;;5.32;1.98;;;17.70;91.70;;;;;;4247602;27;20659;-73
2022/04/09 06:09:20;;;;;;;7.63;2.05;;;17.70;91.70;;;;;;4240486;27;20205;-73
2022/04/09 06:11:24;;;;;;;6.22;2.00;;;17.70;91.70;;;;;;4247134;27;20201;-73
2022/04/09 06:13:26;;;;;;;6.97;2.33;;;17.70;91.70;;;;;;4247521;27;20210;-73
2022/04/09 06:15:29;;;;;;;5.20;1.92;;;17.70;91.70;;;;;;4247509;27;20258;-73
2022/04/09 06:17:33;;;;;;;4.43;2.00;;;17.70;91.80;;;;;;4247166;27;20678;-73
2022/04/09 06:19:36;;;;;;;3.63;1.73;;;17.70;91.80;;;;;;4247156;27;20206;-73
2022/04/09 06:21:38;;;;;;;3.90;2.03;;;17.70;91.80;;;;;;4247387;27;20278;-73
2022/04/09 06:23:41;;;;;;;6.25;2.28;;;17.70;91.80;;;;;;4246989;27;20240;-73
2022/04/09 06:25:43;;;;;;;5.88;2.40;;;17.70;91.80;;;;;;4238644;27;20594;-73
2022/04/09 06:27:45;;;;;;;4.43;2.08;;;17.70;91.80;;;;;;4240953;27;20266;-73
2022/04/09 06:29:47;;;;;;;6.13;2.13;;;17.70;91.80;;;;;;4246821;27;20209;-73
2022/04/09 06:31:50;;;;;;;5.70;2.30;;;17.70;91.80;;;;;;4246790;27;20217;-73
2022/04/09 06:33:54;;;;;;;5.82;2.20;;;17.70;91.80;;;;;;4247080;27;20270;-73
2022/04/09 06:35:56;;;;;;;5.45;2.38;;;17.70;91.80;;;;;;4241857;27;20222;-73
2022/04/09 06:37:59;;;;;;;7.97;2.35;;;17.70;91.80;;;;;;4242586;27;20258;-73
2022/04/09 06:40:01;;;;;;;6.18;2.20;;;17.70;91.80;;;;;;4246739;27;20267;-73
2022/04/09 06:42:04;;;;;;;9.02;2.25;;;17.70;91.80;;;;;;4238346;27;20693;-73
2022/04/09 06:44:07;;;;;;;5.32;2.00;;;17.70;91.80;;;;;;4243296;27;20217;-73
2022/04/09 06:46:09;;;;;;;4.78;1.95;;;17.70;91.80;;;;;;4246980;27;20267;-73
2022/04/09 06:48:12;;;;;;;4.75;2.17;;;17.70;91.70;;;;;;4247066;27;20714;-73
2022/04/09 06:50:15;;;;;;;6.30;2.00;;;17.70;91.80;;;;;;4246883;27;20238;-73
2022/04/09 06:52:18;;;;;;;6.80;2.13;;;17.70;91.80;;;;;;4246610;27;20235;-73
2022/04/09 06:54:20;;;;;;;5.22;2.17;;;17.70;91.70;;;;;;4246734;27;20213;-73
2022/04/09 06:56:23;;;;;;;5.28;2.20;;;17.70;91.80;;;;;;4246847;27;20205;-73
2022/04/09 06:58:25;;;;;;;6.85;2.42;;;17.70;91.80;;;;;;4246912;27;20290;-73
2022/04/09 07:00:27;;;;;;;4.55;2.25;;;17.70;91.80;;;;;;4231903;27;20266;-73
2022/04/09 07:02:30;;;;;;;6.25;2.22;;;17.70;91.80;;;;;;4237409;27;20217;-73
2022/04/09 07:04:32;;;;;;;5.78;2.03;;;17.70;91.80;;;;;;4230088;28;20258;-73
2022/04/09 07:06:36;;;;;;;5.90;2.25;;;17.70;91.90;;;;;;4246627;27;20217;-73
2022/04/09 07:08:39;;;;;;;8.07;2.72;;;17.70;91.90;;;;;;4246851;27;20213;-73
2022/04/09 07:10:42;;;;;;;5.47;1.92;;;17.70;91.80;;;;;;4246723;27;20266;-73
2022/04/09 07:12:45;;;;;;;5.63;2.28;;;17.70;92.00;;;;;;4247072;27;20221;-73
2022/04/09 07:14:47;;;;;;;5.50;2.42;;;17.70;92.00;;;;;;4246575;27;20217;-73
2022/04/09 07:16:49;;;;;;;8.45;2.33;;;17.70;91.90;;;;;;4239142;27;20218;-73
2022/04/09 07:18:51;;;;;;;5.10;2.05;;;17.70;91.90;;;;;;4246443;27;20683;-74
2022/04/09 07:20:54;;;;;;;6.63;2.53;;;17.70;91.80;;;;;;4246656;28;20209;-73
2022/04/09 07:22:58;;;;;;;3.95;1.80;;;17.80;91.80;;;;;;4246866;28;20230;-73
2022/04/09 07:25:00;;;;;;;6.70;2.45;;;17.70;92.20;;;;;;4246571;28;20222;-73
2022/04/09 07:27:03;;;;;;;5.03;2.22;;;17.80;91.90;;;;;;4246722;28;20246;-73
2022/04/09 07:29:05;;;;;;;6.88;2.20;;;17.80;91.90;;;;;;4246363;28;20197;-73
2022/04/09 07:31:08;;;;;;;6.15;2.40;;;17.80;91.90;;;;;;4246541;28;20205;-73
2022/04/09 07:33:10;;;;;;;5.28;2.33;;;17.70;91.80;;;;;;4245237;28;20263;-74
2022/04/09 07:35:14;;;;;;;3.90;1.80;;;17.80;91.90;;;;;;4245706;28;20281;-73
2022/04/09 07:37:16;;;;;;;4.55;2.13;;;17.80;91.90;;;;;;4236624;28;20304;-73
2022/04/09 07:39:20;;;;;;;6.70;2.10;;;17.80;91.90;;;;;;4246332;28;20633;-73
2022/04/09 07:41:22;;;;;;;5.68;2.33;;;17.80;91.90;;;;;;4246150;28;20332;-73
2022/04/09 07:43:24;;;;;;;4.78;2.10;;;17.80;91.80;;;;;;4246440;28;20242;-74
2022/04/09 07:45:28;;;;;;;5.63;2.28;;;17.80;91.80;;;;;;4246057;28;20266;-74
2022/04/09 07:47:31;;;;;;;5.43;2.03;;;17.80;91.90;;;;;;4246786;28;20205;-74
2022/04/09 07:49:33;;;;;;;5.57;2.10;;;17.80;91.80;;;;;;4246481;28;20230;-74
2022/04/09 07:51:35;;;;;;;7.93;2.60;;;17.80;91.90;;;;;;4239591;28;20213;-73
2022/04/09 07:53:38;;;;;;;5.10;2.25;;;17.80;91.80;;;;;;4245373;27;20215;-73
2022/04/09 07:55:42;;;;;;;6.30;2.20;;;17.80;91.90;;;;;;4247802;27;21784;-73
2022/04/09 07:57:44;;;;;;;4.50;2.10;;;17.80;91.90;;;;;;4247094;27;20262;-74
2022/04/09 07:59:47;;;;;;;6.22;1.90;;;17.90;91.90;;;;;;4248276;27;20266;-73
2022/04/09 08:01:49;;;;;;;8.93;2.60;;;17.80;91.90;;;;;;4248051;27;20221;-73
2022/04/09 08:03:51;;;;;;;4.28;2.17;;;17.80;91.90;;;;;;4248677;27;20220;-73
2022/04/09 08:05:54;;;;;;;5.43;2.38;;;17.90;92.00;;;;;;4248437;27;20258;-74
2022/04/09 08:07:57;;;;;;;4.55;2.15;;;17.90;92.00;;;;;;4246607;27;20258;-73
2022/04/09 08:09:59;;;;;;;5.95;2.20;;;17.90;92.00;;;;;;4248268;27;20277;-73
2022/04/09 08:12:03;;;;;;;4.47;2.03;;;17.90;92.00;;;;;;4247884;27;20246;-73
2022/04/09 08:14:06;;;;;;;6.25;2.22;;;17.90;92.00;;;;;;4248233;27;20213;-73
2022/04/09 08:16:09;;;;;;;5.43;2.08;;;17.90;92.00;;;;;;4247765;27;20258;-74
2022/04/09 08:18:11;;;;;;;6.65;2.33;;;17.90;92.00;;;;;;4248024;27;20263;-73
2022/04/09 08:20:14;;;;;;;5.75;2.10;;;17.90;92.00;;;;;;4248002;27;20224;-73
2022/04/09 08:22:17;;;;;;;6.35;2.33;;;17.90;92.00;;;;;;4248165;27;20205;-73
2022/04/09 08:24:20;;;;;;;7.43;1.92;;;17.90;92.00;;;;;;4246601;27;20262;-74
2022/04/09 08:26:22;;;;;;;5.53;2.20;;;17.90;92.00;;;;;;4246808;27;20258;-74
2022/04/09 08:28:27;;;;;;;5.90;2.50;;;18.00;92.30;;;;;;4248008;27;20657;-74
2022/04/09 08:30:29;;;;;;;7.88;2.15;;;18.00;92.10;;;;;;4245173;27;20255;-74
2022/04/09 08:32:31;;;;;;;7.47;2.45;;;18.00;91.90;;;;;;4247941;27;20216;-74
2022/04/09 08:34:35;;;;;;;5.95;2.20;;;18.00;91.90;;;;;;4247481;27;20241;-74
2022/04/09 08:36:37;;;;;;;5.97;2.10;;;18.00;91.90;;;;;;4245087;27;20561;-74
2022/04/09 08:38:39;;;;;;;6.00;2.25;;;18.00;92.10;;;;;;4247264;27;20672;-76
2022/04/09 08:40:43;;;;;;;6.72;2.05;;;18.00;92.60;;;;;;4247048;27;20233;-76
2022/04/09 08:42:45;;;;;;;7.30;2.45;;;18.00;92.30;;;;;;4246135;27;20714;-76
2022/04/09 08:44:49;;;;;;;5.22;2.10;;;18.00;92.30;;;;;;4247624;27;20217;-76
2022/04/09 08:46:51;;;;;;;6.88;2.05;;;18.00;92.40;;;;;;4247563;27;20262;-76
2022/04/09 08:48:53;;;;;;;4.82;2.08;;;18.00;92.30;;;;;;4247470;27;20900;-76
2022/04/09 08:50:57;;;;;;;7.25;2.40;;;18.00;92.30;;;;;;4247058;27;20262;-76
2022/04/09 08:53:06;;;;;;;6.68;2.40;;;18.00;92.30;;;;;;4247029;27;20217;-76
2022/04/09 08:55:11;;;;;;;7.97;2.20;;;18.00;92.20;;;;;;4247311;27;20205;-76
2022/04/09 08:57:13;;;;;;;6.43;2.25;;;18.00;92.30;;;;;;4247100;27;20213;-76
2022/04/09 08:59:16;;;;;;;6.13;2.25;;;18.10;92.40;;;;;;4245911;27;20608;-76
2022/04/09 09:01:21;;;;;;;5.55;2.20;;;18.00;92.30;;;;;;4244732;27;20209;-76
2022/04/09 09:03:25;;;;;;;5.03;2.45;;;18.00;92.20;;;;;;4247308;27;20262;-76
2022/04/09 09:05:32;;;;;;;3.65;2.10;;;18.10;92.30;;;;;;4247139;27;20213;-76
2022/04/09 09:07:46;;;;;;;5.75;2.10;;;18.00;92.30;;;;;;4247261;27;20216;-76
2022/04/09 09:09:50;;;;;;;6.57;2.47;;;18.10;92.40;;;;;;4247005;27;20197;-76
2022/04/09 09:11:53;;;;;;;4.82;1.70;;;18.10;92.50;;;;;;4246676;27;20615;-76
2022/04/09 09:13:56;;;;;;;5.53;1.98;;;18.10;92.40;;;;;;4246991;27;20213;-76
2022/04/09 09:15:58;;;;;;;4.53;1.92;;;18.10;92.40;;;;;;4245368;27;20225;-76
2022/04/09 09:18:02;;;;;;;5.25;2.15;;;18.10;92.40;;;;;;4246922;27;20269;-76
2022/04/09 09:20:14;;;;;;;6.97;2.20;;;18.10;92.40;;;;;;4246780;27;20229;-76
2022/04/09 09:22:17;;;;;;;4.13;2.13;;;18.10;92.60;;;;;;4247363;27;20246;-76
2022/04/09 09:24:19;;;;;;;4.93;2.08;;;18.10;92.60;;;;;;4246857;27;20216;-76
2022/04/09 09:26:23;;;;;;;4.78;2.10;;;18.10;92.50;;;;;;4246807;27;20217;-76
2022/04/09 09:28:27;;;;;;;4.63;1.90;;;18.20;92.70;;;;;;4245913;27;20209;-76
2022/04/09 09:30:48;;;;;;;4.43;2.20;;;18.10;92.40;;;;;;4246268;27;20217;-76
2022/04/09 09:33:07;;;;;;;3.25;1.63;;;18.20;92.50;;;;;;4244744;27;20233;-76
2022/04/09 09:35:12;;;;;;;4.78;2.03;;;18.20;92.20;;;;;;4245106;27;20232;-76
2022/04/09 09:37:24;;;;;;;5.07;2.10;;;18.10;92.20;;;;;;4243989;27;20213;-76
2022/04/09 09:39:27;;;;;;;4.75;2.25;;;18.20;92.30;;;;;;4246514;27;20209;-76
2022/04/09 09:41:29;;;;;;;5.10;2.00;;;18.20;92.40;;;;;;4246439;27;20262;-76
2022/04/09 09:43:32;;;;;;;3.53;1.75;;;18.20;92.60;;;;;;4246421;27;20257;-76
2022/04/09 09:45:41;;;;;;;3.28;1.63;;;18.20;92.90;;;;;;4246702;27;20209;-76
2022/04/09 09:47:56;;;;;;;5.63;1.90;;;18.20;93.20;;;;;;4246445;27;20201;-76
2022/04/09 09:50:00;;;;;;;5.18;1.90;;;18.20;93.40;;;;;;4244975;27;20614;-76
2022/04/09 09:52:05;;;;;;;3.78;1.92;;;18.30;92.90;;;;;;4246494;27;20276;-76
2022/04/09 09:54:09;;;;;;;3.90;1.85;;;18.30;92.80;;;;;;4246457;27;20278;-76
2022/04/09 09:56:11;;;;;;;3.80;1.58;;;18.30;92.80;;;;;;4246962;27;20246;-76
2022/04/09 09:58:16;;;;;;;5.53;1.83;;;18.30;92.80;;;;;;4246115;27;20217;-74
2022/04/09 10:00:19;;;;;;;3.95;1.70;;;18.30;93.00;;;;;;4245440;27;20577;-74
2022/04/09 10:02:22;;;;;;;5.70;1.98;;;18.30;92.80;;;;;;4246362;27;20213;-74
2022/04/09 10:04:25;;;;;;;5.22;1.98;;;18.30;92.80;;;;;;4246529;27;20262;-74
2022/04/09 10:06:29;;;;;;;4.32;1.98;;;18.30;92.70;;;;;;4244906;27;20217;-74
2022/04/09 10:08:31;;;;;;;4.90;2.03;;;18.30;92.80;;;;;;4245001;27;20217;-73
2022/04/09 10:10:36;;;;;;;3.45;1.67;;;18.40;92.70;;;;;;4246278;27;20261;-74
2022/04/09 10:12:40;;;;;;;4.20;2.05;;;18.40;92.70;;;;;;4247206;27;20213;-74
2022/04/09 10:14:45;;;;;;;3.63;1.80;;;18.40;92.90;;;;;;4247225;27;20673;-74
2022/04/09 10:16:49;;;;;;;6.40;1.90;;;18.40;93.40;;;;;;4246721;27;20234;-74
2022/04/09 10:18:54;;;;;;;4.13;1.77;;;18.40;93.50;;;;;;4242833;27;20246;-74
2022/04/09 10:20:59;;;;;;;6.32;2.35;;;18.40;93.10;;;;;;4243481;27;20224;-74
2022/04/09 10:23:06;;;;;;;3.55;1.70;;;18.40;93.30;;;;;;4244781;27;20254;-73
2022/04/09 10:25:09;;;;;;;4.88;2.00;;;18.40;93.10;;;;;;4245676;27;20213;-74
2022/04/09 10:27:33;;;;;;;4.55;1.80;;;18.30;93.10;;;;;;4245968;27;20249;-74
2022/04/09 10:29:53;;;;;;;5.07;2.05;;;18.30;92.90;;;;;;4245819;27;20253;-74
2022/04/09 10:31:56;;;;;;;3.70;1.90;;;18.30;92.80;;;;;;4246335;27;20250;-74
2022/04/09 10:33:59;;;;;;;5.05;2.17;;;18.30;92.70;;;;;;4245892;27;20356;-74
2022/04/09 10:36:02;;;;;;;3.35;1.85;;;18.30;93.30;;;;;;4246108;27;20212;-74
2022/04/09 10:38:23;;;;;;;4.75;1.80;;;18.40;93.00;;;;;;4245807;27;20700;-74
2022/04/09 10:40:25;;;;;;;3.50;1.85;;;18.30;93.20;;;;;;4244146;27;20627;-74
2022/04/09 10:42:47;;;;;;;3.13;1.60;;;18.30;93.20;;;;;;4245598;27;20258;-74
2022/04/09 10:44:53;;;;;;;3.72;1.60;;;18.30;93.40;;;;;;4245635;27;20253;-74